Time;durP1;ratioP1;P1;durP2;ratioP2;P2;SDS_P1;SDS_P2;PMS_P1;PMS_P2;Temp;Humidity;BMP_temperature;BMP_pressure;BME280_temperature;BME280_humidity;BME280_pressure;Samples;Min_cycle;Max_cycle;Signal;HPM_P1;HPM_P2
2023/04/23 00:00:56;;;;;;;;;;;;;;;19.75;61.09;98524.72;2088753;28;19929;-45
2023/04/23 00:01:59;;;;;;;;;;;;;;;19.74;61.28;98523.06;2087554;28;19931;-46
2023/04/23 00:03:03;;;;;;;;;;;;;;;19.73;61.31;98527.63;2090056;28;19961;-49
2023/04/23 00:04:07;;;;;;;;;;;;;;;19.73;61.08;98519.56;2087850;28;19928;-50
2023/04/23 00:05:09;;;;;;;;;;;;;;;19.74;61.37;98523.91;2086638;28;19937;-44
2023/04/23 00:06:11;;;;;;;;;;;;;;;19.74;61.12;98523.06;2087137;28;19928;-47
2023/04/23 00:07:13;;;;;;;;;;;;;;;19.74;61.33;98526.59;2088683;28;20443;-47
2023/04/23 00:08:16;;;;;;;;;;;;;;;19.73;61.25;98522.25;2086439;28;19932;-46
2023/04/23 00:09:17;;;;;;;;;;;;;;;19.73;61.33;98519.56;2089659;28;19982;-45
2023/04/23 00:10:19;;;;;;;;;;;;;;;19.73;61.61;98522.25;2085962;28;20332;-46
2023/04/23 00:11:20;;;;;;;;;;;;;;;19.73;61.53;98519.56;2087138;28;20706;-45
2023/04/23 00:12:21;;;;;;;;;;;;;;;19.74;61.49;98521.22;2087173;28;19929;-50
2023/04/23 00:13:25;;;;;;;;;;;;;;;19.72;61.35;98515.19;2085662;28;19982;-50
2023/04/23 00:14:26;;;;;;;;;;;;;;;19.73;61.69;98519.56;2083263;28;20407;-51
2023/04/23 00:15:31;;;;;;;;;;;;;;;19.74;61.03;98517.69;2088740;28;19972;-48
2023/04/23 00:16:31;;;;;;;;;;;;;;;19.73;61.60;98510.69;2085989;28;19929;-49
2023/04/23 00:17:33;;;;;;;;;;;;;;;19.73;61.36;98518.75;2089571;28;19929;-47
2023/04/23 00:18:33;;;;;;;;;;;;;;;19.71;61.72;98508.19;2088264;28;19933;-46
2023/04/23 00:19:35;;;;;;;;;;;;;;;19.72;61.83;98517.06;2087411;28;21596;-47
2023/04/23 00:20:35;;;;;;;;;;;;;;;19.72;61.40;98517.91;2086322;28;19933;-50
2023/04/23 00:21:37;;;;;;;;;;;;;;;19.73;61.91;98519.56;2079530;28;20388;-46
2023/04/23 00:22:37;;;;;;;;;;;;;;;19.73;61.56;98522.25;2080420;28;20051;-49
2023/04/23 00:23:39;;;;;;;;;;;;;;;19.73;61.85;98516.88;2079717;28;19937;-47
2023/04/23 00:24:40;;;;;;;;;;;;;;;19.75;61.37;98516.66;2078865;28;19940;-44
2023/04/23 00:25:41;;;;;;;;;;;;;;;19.74;61.78;98518.50;2079931;28;19931;-44
2023/04/23 00:26:42;;;;;;;;;;;;;;;19.74;61.79;98510.44;2081606;28;20452;-47
2023/04/23 00:27:43;;;;;;;;;;;;;;;19.75;61.88;98509.41;2078730;28;19933;-47
2023/04/23 00:28:45;;;;;;;;;;;;;;;19.74;61.63;98510.44;2079472;28;19932;-44
2023/04/23 00:29:47;;;;;;;;;;;;;;;19.74;61.69;98506.94;2075997;28;19928;-50
2023/04/23 00:30:47;;;;;;;;;;;;;;;19.73;61.76;98503.41;2077633;28;20311;-48
2023/04/23 00:31:48;;;;;;;;;;;;;;;19.73;61.88;98508.81;2075889;28;19929;-47
2023/04/23 00:32:49;;;;;;;;;;;;;;;19.73;61.64;98507.97;2078975;28;20691;-46
2023/04/23 00:33:50;;;;;;;;;;;;;;;19.73;61.78;98511.50;2079429;28;19928;-48
2023/04/23 00:34:51;;;;;;;;;;;;;;;19.72;61.69;98504.44;2078635;28;19929;-47
2023/04/23 00:35:52;;;;;;;;;;;;;;;19.72;61.98;98503.63;2078357;28;19928;-48
2023/04/23 00:36:53;;;;;;;;;;;;;;;19.71;62.18;98502.81;2078230;28;19971;-47
2023/04/23 00:37:55;;;;;;;;;;;;;;;19.71;62.24;98502.81;2077680;28;19929;-47
2023/04/23 00:38:55;;;;;;;;;;;;;;;19.71;61.97;98505.50;2080867;28;20543;-49
2023/04/23 00:39:57;;;;;;;;;;;;;;;19.70;62.19;98506.53;2078920;28;20025;-49
2023/04/23 00:40:57;;;;;;;;;;;;;;;19.70;62.25;98501.16;2079407;28;19929;-49
2023/04/23 00:41:59;;;;;;;;;;;;;;;19.70;61.96;98506.53;2079980;28;20318;-48
2023/04/23 00:42:59;;;;;;;;;;;;;;;19.70;62.11;98501.16;2077219;28;20418;-49
2023/04/23 00:44:03;;;;;;;;;;;;;;;19.70;62.34;98501.16;2077236;28;20028;-45
2023/04/23 00:45:04;;;;;;;;;;;;;;;19.70;62.02;98506.53;2078420;28;19929;-46
2023/04/23 00:46:06;;;;;;;;;;;;;;;19.70;62.07;98501.16;2077780;28;19928;-47
2023/04/23 00:47:06;;;;;;;;;;;;;;;19.70;62.22;98503.84;2077883;28;20059;-44
2023/04/23 00:48:08;;;;;;;;;;;;;;;19.69;61.85;98502.19;2076417;28;19955;-45
2023/04/23 00:49:09;;;;;;;;;;;;;;;19.69;62.08;98504.06;2078697;28;19982;-44
2023/04/23 00:50:11;;;;;;;;;;;;;;;19.69;62.07;98502.19;2078064;28;20002;-45
2023/04/23 00:51:12;;;;;;;;;;;;;;;19.70;62.28;98501.16;2079630;28;19928;-45
2023/04/23 00:52:14;;;;;;;;;;;;;;;19.70;62.00;98503.84;2079006;28;19983;-46
2023/04/23 00:53:15;;;;;;;;;;;;;;;19.70;62.07;98500.34;2078640;28;19929;-45
2023/04/23 00:54:16;;;;;;;;;;;;;;;19.71;61.98;98507.38;2078762;28;20059;-45
2023/04/23 00:55:19;;;;;;;;;;;;;;;19.70;62.36;98498.47;2081220;28;19936;-48
2023/04/23 00:56:21;;;;;;;;;;;;;;;19.70;62.22;98500.34;2078836;28;20593;-45
2023/04/23 00:57:22;;;;;;;;;;;;;;;19.72;62.49;98503.63;2082540;28;19983;-47
2023/04/23 00:58:23;;;;;;;;;;;;;;;19.71;61.91;98496.59;2082839;28;20011;-48
2023/04/23 00:59:25;;;;;;;;;;;;;;;19.71;62.13;98496.59;2079460;28;19928;-46
2023/04/23 01:00:27;;;;;;;;;;;;;;;19.70;62.45;98497.66;2082016;28;20539;-47
2023/04/23 01:01:29;;;;;;;;;;;;;;;19.69;62.44;98494.09;2075830;28;19986;-48
2023/04/23 01:02:30;;;;;;;;;;;;;;;19.70;62.36;98495.78;2077979;28;19936;-48
2023/04/23 01:03:34;;;;;;;;;;;;;;;19.69;62.49;98494.09;2077059;28;19928;-47
2023/04/23 01:04:37;;;;;;;;;;;;;;;19.70;62.15;98493.09;2075605;28;20019;-51
2023/04/23 01:05:38;;;;;;;;;;;;;;;19.70;62.43;98495.78;2080251;28;19979;-45
2023/04/23 01:06:40;;;;;;;;;;;;;;;19.69;62.52;98498.66;2079776;28;19941;-47
2023/04/23 01:07:42;;;;;;;;;;;;;;;19.68;62.66;98497.84;2076273;28;19975;-45
2023/04/23 01:08:44;;;;;;;;;;;;;;;19.69;62.59;98496.78;2078110;28;20023;-46
2023/04/23 01:09:45;;;;;;;;;;;;;;;19.67;62.62;98496.22;2079377;28;20007;-49
2023/04/23 01:10:47;;;;;;;;;;;;;;;19.69;62.28;98495.97;2078623;28;20011;-47
2023/04/23 01:11:48;;;;;;;;;;;;;;;19.69;62.32;98495.97;2078366;28;19983;-51
2023/04/23 01:12:50;;;;;;;;;;;;;;;19.67;62.54;98492.66;2078380;28;22004;-48
2023/04/23 01:13:50;;;;;;;;;;;;;;;19.67;62.55;98493.53;2078734;28;19978;-44
2023/04/23 01:14:54;;;;;;;;;;;;;;;19.68;62.26;98492.47;2078090;28;19991;-47
2023/04/23 01:15:55;;;;;;;;;;;;;;;19.69;62.18;98490.59;2078882;28;19929;-45
2023/04/23 01:16:57;;;;;;;;;;;;;;;19.69;61.85;98491.41;2078765;28;19925;-48
2023/04/23 01:17:58;;;;;;;;;;;;;;;19.70;62.40;98494.97;2078918;28;19960;-48
2023/04/23 01:19:01;;;;;;;;;;;;;;;19.70;62.30;98495.78;2076970;28;20015;-46
2023/04/23 01:20:01;;;;;;;;;;;;;;;19.69;62.30;98495.97;2078215;28;19925;-45
2023/04/23 01:21:03;;;;;;;;;;;;;;;19.70;62.22;98490.41;2080222;28;19929;-49
2023/04/23 01:22:07;;;;;;;;;;;;;;;19.70;61.88;98495.78;2076633;28;20444;-46
2023/04/23 01:23:09;;;;;;;;;;;;;;;19.70;62.35;98490.41;2068233;28;19933;-50
2023/04/23 01:24:10;;;;;;;;;;;;;;;19.68;62.37;98497.84;2077178;28;20391;-50
2023/04/23 01:25:11;;;;;;;;;;;;;;;19.68;62.30;98497.84;2079262;28;19929;-50
2023/04/23 01:26:13;;;;;;;;;;;;;;;19.67;62.68;98490.81;2079871;28;19928;-46
2023/04/23 01:27:15;;;;;;;;;;;;;;;19.66;62.58;98499.91;2077927;28;19928;-47
2023/04/23 01:28:15;;;;;;;;;;;;;;;19.65;62.66;98503.63;2078978;28;19958;-49
2023/04/23 01:29:17;;;;;;;;;;;;;;;19.68;62.43;98497.03;2078371;28;20100;-47
2023/04/23 01:30:18;;;;;;;;;;;;;;;19.66;62.20;98493.72;2078555;28;20390;-51
2023/04/23 01:31:20;;;;;;;;;;;;;;;19.67;62.45;98501.59;2081009;28;20016;-50
2023/04/23 01:32:20;;;;;;;;;;;;;;;19.67;62.68;98498.91;2079299;28;19933;-47
2023/04/23 01:33:22;;;;;;;;;;;;;;;19.66;62.19;98494.53;2077229;28;20645;-49
2023/04/23 01:34:22;;;;;;;;;;;;;;;19.66;62.38;98491.84;2079176;28;20040;-47
2023/04/23 01:35:24;;;;;;;;;;;;;;;19.67;62.28;98495.34;2077510;28;19925;-50
2023/04/23 01:36:25;;;;;;;;;;;;;;;19.67;62.29;98487.28;2079317;28;19967;-44
2023/04/23 01:37:29;;;;;;;;;;;;;;;19.67;62.36;98493.53;2077989;28;20406;-46
2023/04/23 01:38:30;;;;;;;;;;;;;;;19.65;62.71;98490.19;2074370;28;19929;-47
2023/04/23 01:39:32;;;;;;;;;;;;;;;19.64;62.49;98486.66;2077850;28;20019;-50
2023/04/23 01:40:32;;;;;;;;;;;;;;;19.64;62.71;98496.59;2080023;28;19969;-44
2023/04/23 01:41:34;;;;;;;;;;;;;;;19.63;62.45;98490.38;2078895;28;19979;-47
2023/04/23 01:42:35;;;;;;;;;;;;;;;19.65;62.36;98492.88;2079316;28;19978;-48
2023/04/23 01:43:37;;;;;;;;;;;;;;;19.66;62.35;98491.03;2078319;28;21697;-47
2023/04/23 01:44:37;;;;;;;;;;;;;;;19.66;62.07;98488.34;2078831;28;20483;-49
2023/04/23 01:45:39;;;;;;;;;;;;;;;19.67;62.64;98489.97;2076981;28;20017;-46
2023/04/23 01:46:39;;;;;;;;;;;;;;;19.66;62.25;98489.16;2078941;28;19948;-45
2023/04/23 01:47:41;;;;;;;;;;;;;;;19.69;61.84;98494.09;2079769;28;19938;-48
2023/04/23 01:48:41;;;;;;;;;;;;;;;19.68;61.94;98492.47;2076976;28;19929;-47
2023/04/23 01:49:43;;;;;;;;;;;;;;;19.67;62.27;98490.81;2078630;28;19952;-50
2023/04/23 01:50:43;;;;;;;;;;;;;;;19.68;61.94;98492.47;2079356;28;19928;-45
2023/04/23 01:51:45;;;;;;;;;;;;;;;19.68;61.92;98494.34;2079852;28;20395;-49
2023/04/23 01:52:46;;;;;;;;;;;;;;;19.64;62.25;98497.44;2078003;28;20006;-45
2023/04/23 01:53:48;;;;;;;;;;;;;;;19.63;62.13;98490.38;2077094;28;19929;-50
2023/04/23 01:54:49;;;;;;;;;;;;;;;19.65;62.31;98495.56;2076780;28;19924;-45
2023/04/23 01:55:51;;;;;;;;;;;;;;;19.64;62.71;98491.22;2074948;28;20375;-48
2023/04/23 01:56:54;;;;;;;;;;;;;;;19.64;62.67;98493.91;2076886;28;20654;-47
2023/04/23 01:57:55;;;;;;;;;;;;;;;19.66;62.63;98491.84;2080001;28;19929;-47
2023/04/23 01:58:56;;;;;;;;;;;;;;;19.66;62.43;98493.72;2079212;28;20013;-49
2023/04/23 02:00:01;;;;;;;;;;;;;;;19.66;62.50;98505.31;2080020;28;21309;-50
2023/04/23 02:01:01;;;;;;;;;;;;;;;19.66;62.33;98497.22;2078143;28;19940;-44
2023/04/23 02:02:03;;;;;;;;;;;;;;;19.67;62.44;98498.91;2078534;28;20415;-49
2023/04/23 02:03:03;;;;;;;;;;;;;;;19.66;61.94;98501.78;2077526;28;19932;-45
2023/04/23 02:04:05;;;;;;;;;;;;;;;19.67;62.18;98506.97;2077776;28;20349;-47
2023/04/23 02:05:08;;;;;;;;;;;;;;;19.66;62.37;98497.22;2080368;28;20349;-45
2023/04/23 02:06:10;;;;;;;;;;;;;;;19.64;62.36;98500.13;2079520;28;20269;-47
2023/04/23 02:07:10;;;;;;;;;;;;;;;19.65;62.54;98492.88;2078121;28;20049;-51
2023/04/23 02:08:13;;;;;;;;;;;;;;;19.66;62.60;98510.69;2077667;28;19932;-48
2023/04/23 02:09:14;;;;;;;;;;;;;;;19.64;62.19;98496.59;2076976;28;20007;-50
2023/04/23 02:10:16;;;;;;;;;;;;;;;19.64;62.60;98499.31;2078870;28;20394;-46
2023/04/23 02:11:16;;;;;;;;;;;;;;;19.66;62.20;98499.91;2077863;28;19932;-49
2023/04/23 02:12:18;;;;;;;;;;;;;;;19.65;61.95;98495.56;2076729;28;19940;-48
2023/04/23 02:13:18;;;;;;;;;;;;;;;19.67;62.09;98501.59;2075894;28;19977;-48
2023/04/23 02:14:20;;;;;;;;;;;;;;;19.67;62.11;98496.22;2078054;28;19937;-50
2023/04/23 02:15:20;;;;;;;;;;;;;;;19.65;62.74;98495.56;2077903;28;19929;-49
2023/04/23 02:16:23;;;;;;;;;;;;;;;19.63;62.55;98492.25;2080192;28;19925;-49
2023/04/23 02:17:23;;;;;;;;;;;;;;;19.63;62.46;98493.06;2078453;28;19928;-50
2023/04/23 02:18:25;;;;;;;;;;;;;;;19.65;62.51;98503.63;2077723;28;19974;-52
2023/04/23 02:19:26;;;;;;;;;;;;;;;19.65;62.14;98503.63;2076426;28;19940;-51
2023/04/23 02:20:28;;;;;;;;;;;;;;;19.67;61.95;98495.34;2078852;28;19929;-47
2023/04/23 02:21:29;;;;;;;;;;;;;;;19.66;62.25;98499.91;2067390;28;20387;-48
2023/04/23 02:22:30;;;;;;;;;;;;;;;19.65;62.25;98498.25;2072168;28;19933;-49
2023/04/23 02:23:32;;;;;;;;;;;;;;;19.66;62.20;98497.22;2075237;28;19929;-48
2023/04/23 02:24:34;;;;;;;;;;;;;;;19.65;62.67;98495.56;2075335;28;20613;-54
2023/04/23 02:25:37;;;;;;;;;;;;;;;19.66;61.95;98493.72;2077663;28;19940;-45
2023/04/23 02:26:38;;;;;;;;;;;;;;;19.67;62.11;98496.22;2075580;28;19964;-45
2023/04/23 02:27:39;;;;;;;;;;;;;;;19.67;62.37;98490.81;2073839;28;19986;-48
2023/04/23 02:28:40;;;;;;;;;;;;;;;19.66;62.33;98496.41;2076964;28;20928;-47
2023/04/23 02:29:41;;;;;;;;;;;;;;;19.65;62.03;98492.88;2077936;28;19991;-49
2023/04/23 02:30:44;;;;;;;;;;;;;;;19.64;62.34;98489.34;2077147;28;20410;-48
2023/04/23 02:31:45;;;;;;;;;;;;;;;19.66;61.96;98493.72;2077176;28;21242;-45
2023/04/23 02:32:46;;;;;;;;;;;;;;;19.66;62.44;98491.84;2080226;28;19929;-44
2023/04/23 02:33:47;;;;;;;;;;;;;;;19.63;62.42;98495.75;2075498;28;19998;-48
2023/04/23 02:34:48;;;;;;;;;;;;;;;19.64;62.21;98496.59;2077133;28;19979;-45
2023/04/23 02:35:49;;;;;;;;;;;;;;;19.63;62.37;98492.25;2078022;28;20395;-46
2023/04/23 02:36:51;;;;;;;;;;;;;;;19.62;62.72;98496.00;2078223;28;19925;-44
2023/04/23 02:37:53;;;;;;;;;;;;;;;19.62;62.33;98491.44;2077839;28;19936;-46
2023/04/23 02:38:55;;;;;;;;;;;;;;;19.64;62.46;98493.91;2076238;28;19931;-50
2023/04/23 02:39:56;;;;;;;;;;;;;;;19.62;62.19;98493.28;2077677;28;19979;-49
2023/04/23 02:40:57;;;;;;;;;;;;;;;19.63;62.71;98494.94;2078675;28;20343;-50
2023/04/23 02:41:58;;;;;;;;;;;;;;;19.64;62.77;98497.44;2075147;28;20014;-48
2023/04/23 02:43:00;;;;;;;;;;;;;;;19.63;62.74;98494.94;2076885;28;20338;-47
2023/04/23 02:44:00;;;;;;;;;;;;;;;19.62;62.61;98494.13;2077719;28;19954;-49
2023/04/23 02:45:00;;;;;;;;;;;;;;;19.63;62.56;98497.63;2077393;28;20027;-49
2023/04/23 02:46:06;;;;;;;;;;;;;;;19.62;62.42;98493.28;2076325;28;19936;-46
2023/04/23 02:47:07;;;;;;;;;;;;;;;19.63;62.16;98490.38;2078845;28;19932;-48
2023/04/23 02:48:10;;;;;;;;;;;;;;;19.62;62.53;98494.13;2079008;28;19975;-46
2023/04/23 02:49:11;;;;;;;;;;;;;;;19.62;62.33;98496.81;2076687;28;19932;-44
2023/04/23 02:50:12;;;;;;;;;;;;;;;19.62;61.98;98498.69;2077567;28;19933;-47
2023/04/23 02:51:13;;;;;;;;;;;;;;;19.63;62.14;98498.44;2077242;28;20387;-47
2023/04/23 02:52:14;;;;;;;;;;;;;;;19.61;62.41;98497.00;2074895;28;19933;-49
2023/04/23 02:53:15;;;;;;;;;;;;;;;19.60;62.64;98490.00;2076704;28;19925;-47
2023/04/23 02:54:17;;;;;;;;;;;;;;;19.61;62.02;98499.69;2078758;28;20047;-48
2023/04/23 02:55:18;;;;;;;;;;;;;;;19.61;62.61;98497.00;2077772;28;19936;-51
2023/04/23 02:56:19;;;;;;;;;;;;;;;19.61;62.34;98497.84;2078703;28;20024;-46
2023/04/23 02:57:20;;;;;;;;;;;;;;;19.61;62.79;98492.47;2081080;28;19933;-47
2023/04/23 02:58:21;;;;;;;;;;;;;;;19.62;62.11;98498.69;2076759;28;20327;-45
2023/04/23 02:59:22;;;;;;;;;;;;;;;19.62;62.34;98490.59;2074568;28;19929;-48
2023/04/23 03:00:23;;;;;;;;;;;;;;;19.61;62.16;98492.47;2075919;28;22419;-45
2023/04/23 03:01:24;;;;;;;;;;;;;;;19.63;62.09;98494.94;2077778;28;19951;-48
2023/04/23 03:02:25;;;;;;;;;;;;;;;19.64;62.23;98492.03;2078123;28;19925;-47
2023/04/23 03:03:30;;;;;;;;;;;;;;;19.63;63.12;98492.25;2076120;28;19932;-50
2023/04/23 03:04:32;;;;;;;;;;;;;;;19.61;62.96;98491.63;2077763;28;19929;-46
2023/04/23 03:05:32;;;;;;;;;;;;;;;19.59;62.55;98489.16;2077901;28;20381;-46
2023/04/23 03:06:34;;;;;;;;;;;;;;;19.57;62.49;98491.25;2077495;28;19935;-46
2023/04/23 03:07:35;;;;;;;;;;;;;;;19.61;62.99;98486.25;2078019;28;19929;-47
2023/04/23 03:08:36;;;;;;;;;;;;;;;19.59;62.56;98485.66;2077988;28;19929;-49
2023/04/23 03:09:38;;;;;;;;;;;;;;;19.61;62.55;98487.09;2077207;28;20005;-47
2023/04/23 03:10:40;;;;;;;;;;;;;;;19.62;62.45;98482.53;2079056;28;19986;-47
2023/04/23 03:11:40;;;;;;;;;;;;;;;19.60;62.67;98479.22;2077342;28;19946;-47
2023/04/23 03:12:41;;;;;;;;;;;;;;;19.60;62.58;98474.66;2077881;28;19932;-50
2023/04/23 03:13:42;;;;;;;;;;;;;;;19.60;62.67;98476.53;2076365;28;19937;-46
2023/04/23 03:14:43;;;;;;;;;;;;;;;19.62;62.76;98482.53;2076168;28;19925;-46
2023/04/23 03:15:44;;;;;;;;;;;;;;;19.60;62.45;98477.34;2076193;28;19925;-49
2023/04/23 03:16:45;;;;;;;;;;;;;;;19.59;62.56;98478.41;2075984;28;20339;-47
2023/04/23 03:17:46;;;;;;;;;;;;;;;19.60;62.46;98484.59;2075170;28;19971;-51
2023/04/23 03:18:47;;;;;;;;;;;;;;;19.59;62.58;98483.78;2077431;28;19929;-47
2023/04/23 03:19:48;;;;;;;;;;;;;;;19.60;62.35;98480.03;2076887;28;19925;-47
2023/04/23 03:20:49;;;;;;;;;;;;;;;19.59;63.14;98477.59;2078053;28;19937;-44
2023/04/23 03:21:49;;;;;;;;;;;;;;;19.59;62.44;98482.97;2075688;28;19967;-46
2023/04/23 03:22:51;;;;;;;;;;;;;;;19.61;62.35;98487.09;2077975;28;19932;-47
2023/04/23 03:23:51;;;;;;;;;;;;;;;19.59;62.85;98473.03;2076089;28;19982;-46
2023/04/23 03:24:54;;;;;;;;;;;;;;;19.60;62.80;98479.22;2078472;28;19925;-47
2023/04/23 03:25:55;;;;;;;;;;;;;;;19.59;62.33;98482.97;2078460;28;19929;-48
2023/04/23 03:26:57;;;;;;;;;;;;;;;19.58;62.62;98479.44;2077189;28;20434;-50
2023/04/23 03:27:57;;;;;;;;;;;;;;;19.59;62.45;98481.09;2076427;28;20982;-50
2023/04/23 03:28:59;;;;;;;;;;;;;;;19.59;62.52;98482.97;2078214;28;20010;-47
2023/04/23 03:29:59;;;;;;;;;;;;;;;19.58;62.50;98481.28;2075620;28;19952;-45
2023/04/23 03:31:00;;;;;;;;;;;;;;;19.59;62.71;98482.97;2078239;28;19929;-48
2023/04/23 03:32:01;;;;;;;;;;;;;;;19.59;62.58;98482.97;2076730;28;19987;-50
2023/04/23 03:33:02;;;;;;;;;;;;;;;19.56;62.76;98478.84;2077156;28;20472;-45
2023/04/23 03:34:03;;;;;;;;;;;;;;;19.58;62.88;98479.44;2072353;28;19933;-45
2023/04/23 03:35:05;;;;;;;;;;;;;;;19.57;62.54;98474.28;2074557;28;19929;-46
2023/04/23 03:36:07;;;;;;;;;;;;;;;19.57;63.21;98479.66;2078503;28;20000;-48
2023/04/23 03:37:07;;;;;;;;;;;;;;;19.58;62.84;98473.22;2077526;28;19928;-47
2023/04/23 03:38:09;;;;;;;;;;;;;;;19.57;62.72;98474.28;2075378;28;20449;-47
2023/04/23 03:39:10;;;;;;;;;;;;;;;19.58;62.87;98470.53;2079945;28;19929;-48
2023/04/23 03:40:13;;;;;;;;;;;;;;;19.57;62.56;98475.09;2076934;28;20454;-49
2023/04/23 03:41:14;;;;;;;;;;;;;;;19.55;62.82;98470.97;2078990;28;20579;-49
2023/04/23 03:42:15;;;;;;;;;;;;;;;19.58;62.39;98474.03;2075971;28;19933;-50
2023/04/23 03:43:16;;;;;;;;;;;;;;;19.57;62.62;98469.72;2076883;28;19933;-47
2023/04/23 03:44:17;;;;;;;;;;;;;;;19.56;62.75;98469.94;2075718;28;19975;-48
2023/04/23 03:45:18;;;;;;;;;;;;;;;19.58;62.45;98473.22;2075171;28;19940;-48
2023/04/23 03:46:19;;;;;;;;;;;;;;;19.57;62.54;98471.59;2077789;28;20459;-50
2023/04/23 03:47:20;;;;;;;;;;;;;;;19.57;62.83;98471.59;2078246;28;19936;-48
2023/04/23 03:48:21;;;;;;;;;;;;;;;19.56;62.69;98472.63;2077663;28;19933;-49
2023/04/23 03:49:22;;;;;;;;;;;;;;;19.56;62.49;98472.63;2076211;28;19982;-47
2023/04/23 03:50:23;;;;;;;;;;;;;;;19.55;62.69;98468.28;2077935;28;19937;-49
2023/04/23 03:51:24;;;;;;;;;;;;;;;19.55;63.11;98470.97;2076388;28;20015;-47
2023/04/23 03:52:25;;;;;;;;;;;;;;;19.55;62.79;98471.78;2077960;28;19932;-45
2023/04/23 03:53:26;;;;;;;;;;;;;;;19.55;62.72;98468.28;2076699;28;19959;-48
2023/04/23 03:54:27;;;;;;;;;;;;;;;19.54;62.69;98474.69;2077560;28;19955;-44
2023/04/23 03:55:29;;;;;;;;;;;;;;;19.54;62.62;98472.84;2076995;28;20637;-44
2023/04/23 03:56:31;;;;;;;;;;;;;;;19.55;62.72;98476.34;2079627;28;19992;-47
2023/04/23 03:57:31;;;;;;;;;;;;;;;19.53;62.76;98475.72;2077160;28;21668;-47
2023/04/23 03:58:32;;;;;;;;;;;;;;;19.53;62.97;98473.03;2078089;28;19987;-46
2023/04/23 03:59:33;;;;;;;;;;;;;;;19.53;62.95;98473.88;2077467;28;19929;-47
2023/04/23 04:00:34;;;;;;;;;;;;;;;19.52;62.95;98466.84;2077918;28;19936;-47
2023/04/23 04:01:35;;;;;;;;;;;;;;;19.53;62.78;98481.09;2073186;28;19929;-49
2023/04/23 04:02:37;;;;;;;;;;;;;;;19.54;63.04;98474.69;2077399;28;19979;-48
2023/04/23 04:03:37;;;;;;;;;;;;;;;19.54;62.79;98474.69;2075347;28;19997;-47
2023/04/23 04:04:39;;;;;;;;;;;;;;;19.53;62.83;98473.03;2077655;28;19983;-49
2023/04/23 04:05:39;;;;;;;;;;;;;;;19.54;62.66;98472.00;2077802;28;20387;-45
2023/04/23 04:06:41;;;;;;;;;;;;;;;19.53;62.77;98471.19;2078536;28;19925;-47
2023/04/23 04:07:42;;;;;;;;;;;;;;;19.52;62.89;98474.09;2077326;28;19937;-45
2023/04/23 04:08:43;;;;;;;;;;;;;;;19.53;62.87;98470.34;2078012;28;20453;-47
2023/04/23 04:09:45;;;;;;;;;;;;;;;19.53;62.94;98473.03;2078520;28;19990;-46
2023/04/23 04:10:48;;;;;;;;;;;;;;;19.52;63.24;98468.72;2078165;28;20039;-46
2023/04/23 04:11:49;;;;;;;;;;;;;;;19.53;63.03;98470.34;2077415;28;19933;-46
2023/04/23 04:12:50;;;;;;;;;;;;;;;19.52;62.92;98472.22;2077722;28;20382;-46
2023/04/23 04:13:51;;;;;;;;;;;;;;;19.52;62.75;98466.84;2077706;28;19928;-45
2023/04/23 04:14:52;;;;;;;;;;;;;;;19.52;62.94;98471.41;2078225;28;19933;-47
2023/04/23 04:15:53;;;;;;;;;;;;;;;19.53;62.63;98475.72;2076755;28;20015;-44
2023/04/23 04:16:54;;;;;;;;;;;;;;;19.51;62.73;98469.75;2077562;28;19928;-46
2023/04/23 04:17:54;;;;;;;;;;;;;;;19.51;62.78;98464.38;2076861;28;19968;-45
2023/04/23 04:18:56;;;;;;;;;;;;;;;19.50;63.09;98468.09;2078780;28;19929;-46
2023/04/23 04:19:56;;;;;;;;;;;;;;;19.50;62.47;98473.47;2074600;28;20392;-45
2023/04/23 04:20:58;;;;;;;;;;;;;;;19.50;62.73;98476.16;2077725;28;20007;-47
2023/04/23 04:21:58;;;;;;;;;;;;;;;19.50;62.89;98468.09;2078011;28;19939;-45
2023/04/23 04:23:00;;;;;;;;;;;;;;;19.49;62.71;98469.13;2079810;28;20891;-45
2023/04/23 04:24:00;;;;;;;;;;;;;;;19.50;62.99;98476.16;2075630;28;20013;-46
2023/04/23 04:25:02;;;;;;;;;;;;;;;19.49;62.66;98477.19;2076980;28;19987;-47
2023/04/23 04:26:04;;;;;;;;;;;;;;;19.49;63.43;98482.59;2077972;28;19972;-45
2023/04/23 04:27:05;;;;;;;;;;;;;;;19.50;63.09;98473.47;2077299;28;20001;-45
2023/04/23 04:28:06;;;;;;;;;;;;;;;19.49;63.00;98477.19;2078051;28;19983;-45
2023/04/23 04:29:09;;;;;;;;;;;;;;;19.50;63.13;98484.22;2079514;28;19929;-44
2023/04/23 04:30:10;;;;;;;;;;;;;;;19.48;63.09;98479.06;2078152;28;19971;-47
2023/04/23 04:31:11;;;;;;;;;;;;;;;19.47;63.06;98485.47;2078296;28;20005;-45
2023/04/23 04:32:12;;;;;;;;;;;;;;;19.48;63.06;98480.94;2078737;28;19929;-46
2023/04/23 04:33:13;;;;;;;;;;;;;;;19.47;63.02;98481.97;2078011;28;19925;-47
2023/04/23 04:34:14;;;;;;;;;;;;;;;19.48;62.69;98483.63;2078950;28;19951;-45
2023/04/23 04:35:16;;;;;;;;;;;;;;;19.47;63.01;98485.47;2077937;28;19952;-44
2023/04/23 04:36:17;;;;;;;;;;;;;;;19.47;62.87;98484.66;2079248;28;20846;-44
2023/04/23 04:37:19;;;;;;;;;;;;;;;19.49;63.05;98485.28;2077934;28;19975;-45
2023/04/23 04:38:21;;;;;;;;;;;;;;;19.48;62.89;98481.75;2073600;28;19983;-46
2023/04/23 04:39:22;;;;;;;;;;;;;;;19.46;62.82;98478.44;2080232;28;20012;-48
2023/04/23 04:40:25;;;;;;;;;;;;;;;19.47;63.07;98485.47;2080886;28;20013;-50
2023/04/23 04:41:28;;;;;;;;;;;;;;;19.46;63.16;98488.38;2075615;28;20048;-45
2023/04/23 04:42:28;;;;;;;;;;;;;;;19.47;63.25;98490.03;2076780;28;19970;-45
2023/04/23 04:43:29;;;;;;;;;;;;;;;19.47;62.85;98488.16;2075146;28;19933;-48
2023/04/23 04:44:31;;;;;;;;;;;;;;;19.47;63.28;98485.47;2077906;28;19925;-49
2023/04/23 04:45:32;;;;;;;;;;;;;;;19.47;63.07;98490.84;2077304;28;19971;-47
2023/04/23 04:46:33;;;;;;;;;;;;;;;19.46;63.02;98493.78;2077528;28;19936;-44
2023/04/23 04:47:35;;;;;;;;;;;;;;;19.47;63.11;98490.03;2077715;28;19964;-49
2023/04/23 04:48:35;;;;;;;;;;;;;;;19.46;63.42;98494.59;2079805;28;19964;-47
2023/04/23 04:49:37;;;;;;;;;;;;;;;19.45;63.03;98492.13;2075980;28;19944;-47
2023/04/23 04:50:37;;;;;;;;;;;;;;;19.46;62.65;98488.38;2077418;28;19957;-46
2023/04/23 04:51:39;;;;;;;;;;;;;;;19.46;63.07;98491.91;2077330;28;19933;-49
2023/04/23 04:52:40;;;;;;;;;;;;;;;19.46;62.92;98497.28;2077109;28;19933;-49
2023/04/23 04:53:41;;;;;;;;;;;;;;;19.45;62.67;98490.25;2078541;28;19994;-52
2023/04/23 04:54:42;;;;;;;;;;;;;;;19.45;63.15;98492.13;2073219;28;19983;-48
2023/04/23 04:55:43;;;;;;;;;;;;;;;19.45;63.36;98498.31;2075564;28;19928;-49
2023/04/23 04:56:45;;;;;;;;;;;;;;;19.46;63.17;98499.16;2077041;28;19925;-49
2023/04/23 04:57:46;;;;;;;;;;;;;;;19.43;63.01;98501.22;2077073;28;19933;-47
2023/04/23 04:58:47;;;;;;;;;;;;;;;19.45;62.90;98497.50;2076921;28;19975;-46
2023/04/23 04:59:49;;;;;;;;;;;;;;;19.43;63.12;98497.72;2078656;28;20359;-45
2023/04/23 05:00:50;;;;;;;;;;;;;;;19.43;63.12;98501.22;2076231;28;20406;-48
2023/04/23 05:01:52;;;;;;;;;;;;;;;19.42;63.39;98499.56;2076200;28;20334;-49
2023/04/23 05:02:52;;;;;;;;;;;;;;;19.42;63.32;98504.13;2075338;28;20008;-45
2023/04/23 05:03:54;;;;;;;;;;;;;;;19.42;63.48;98502.28;2074542;28;20915;-52
2023/04/23 05:04:54;;;;;;;;;;;;;;;19.41;63.06;98503.28;2076862;28;19933;-44
2023/04/23 05:05:57;;;;;;;;;;;;;;;19.41;63.25;98497.09;2075037;28;19933;-47
2023/04/23 05:06:58;;;;;;;;;;;;;;;19.41;63.16;98503.28;2077016;28;20518;-50
2023/04/23 05:08:01;;;;;;;;;;;;;;;19.41;63.31;98497.91;2078289;28;19940;-45
2023/04/23 05:09:01;;;;;;;;;;;;;;;19.42;63.23;98504.97;2077081;28;19960;-48
2023/04/23 05:10:02;;;;;;;;;;;;;;;19.40;63.48;98498.94;2077110;28;20261;-49
2023/04/23 05:11:03;;;;;;;;;;;;;;;19.41;63.50;98507.84;2073090;28;20509;-46
2023/04/23 05:12:06;;;;;;;;;;;;;;;19.41;63.36;98513.22;2076338;28;19929;-45
2023/04/23 05:13:07;;;;;;;;;;;;;;;19.41;63.25;98507.84;2074913;28;19952;-48
2023/04/23 05:14:09;;;;;;;;;;;;;;;19.40;63.18;98507.03;2077242;28;20015;-48
2023/04/23 05:15:12;;;;;;;;;;;;;;;19.40;63.21;98511.59;2077668;28;19929;-44
2023/04/23 05:16:13;;;;;;;;;;;;;;;19.41;63.35;98514.03;2074057;28;19929;-46
2023/04/23 05:17:13;;;;;;;;;;;;;;;19.40;63.27;98508.91;2077777;28;19926;-49
2023/04/23 05:18:15;;;;;;;;;;;;;;;19.43;63.17;98511.16;2077253;28;19929;-46
2023/04/23 05:19:15;;;;;;;;;;;;;;;19.41;63.68;98508.66;2077470;28;20505;-46
2023/04/23 05:20:17;;;;;;;;;;;;;;;19.39;63.10;98505.38;2074493;28;19929;-48